createdAt,value
2017-09-15T00:00:32.347Z,100884.84
2017-09-15T00:02:34.802Z,100881.30
2017-09-15T00:04:37.388Z,100885.89
2017-09-15T00:06:40.016Z,100880.79
2017-09-15T00:08:42.486Z,100893.79
2017-09-15T00:10:44.942Z,100882.14
2017-09-15T00:12:47.380Z,100879.14
2017-09-15T00:14:49.868Z,100883.82
2017-09-15T00:16:52.365Z,100884.13
2017-09-15T00:18:54.884Z,100880.16
2017-09-15T00:20:57.666Z,100879.95
2017-09-15T00:23:00.115Z,100875.59
2017-09-15T00:25:02.636Z,100881.30
2017-09-15T00:27:05.217Z,100879.77
2017-09-15T00:29:07.693Z,100878.90
2017-09-15T00:31:10.145Z,100882.53
2017-09-15T00:33:12.689Z,100885.32
2017-09-15T00:35:15.165Z,100879.73
2017-09-15T00:37:18.550Z,100879.83
2017-09-15T00:39:21.014Z,100892.50
2017-09-15T00:41:23.474Z,100886.16
2017-09-15T00:43:25.958Z,100889.80
2017-09-15T00:45:28.634Z,100884.93
2017-09-15T00:47:31.208Z,100883.45
2017-09-15T00:49:33.672Z,100889.49
2017-09-15T00:51:36.232Z,100895.11
2017-09-15T00:53:38.676Z,100894.69
2017-09-15T00:55:41.295Z,100895.11
2017-09-15T00:57:43.777Z,100896.46
2017-09-15T00:59:46.229Z,100897.81
2017-09-15T01:01:48.714Z,100903.00
2017-09-15T01:03:51.273Z,100900.48
2017-09-15T01:05:53.747Z,100897.27
2017-09-15T01:07:56.191Z,100898.53
2017-09-15T01:09:58.807Z,100900.18
2017-09-15T01:12:01.311Z,100895.83
2017-09-15T01:14:03.813Z,100898.20
2017-09-15T01:16:06.355Z,100900.14
2017-09-15T01:18:08.860Z,100898.41
2017-09-15T01:20:11.320Z,100899.42
2017-09-15T01:22:13.916Z,100900.98
2017-09-15T01:24:16.424Z,100905.28
2017-09-15T01:26:18.901Z,100907.32
2017-09-15T01:28:21.369Z,100905.67
2017-09-15T01:30:23.882Z,100897.78
2017-09-15T01:32:26.409Z,100899.34
2017-09-15T01:34:28.880Z,100896.52
2017-09-15T01:36:31.334Z,100899.00
2017-09-15T01:38:33.836Z,100893.19
2017-09-15T01:40:36.301Z,100899.52
2017-09-15T01:42:38.788Z,100896.94
2017-09-15T01:44:41.310Z,100897.36
2017-09-15T01:46:43.792Z,100893.72
2017-09-15T01:48:46.289Z,100894.53
2017-09-15T01:50:48.961Z,100907.63
2017-09-15T01:52:51.443Z,100894.02
2017-09-15T01:54:53.886Z,100894.20
2017-09-15T01:56:56.417Z,100894.63
2017-09-15T01:58:58.952Z,100893.27
2017-09-15T02:01:01.396Z,100893.60
2017-09-15T02:03:03.865Z,100891.50
2017-09-15T02:05:06.342Z,100887.87
2017-09-15T02:07:08.784Z,100886.52
2017-09-15T02:09:11.226Z,100889.73
2017-09-15T02:11:13.706Z,100890.27
2017-09-15T02:13:16.158Z,100884.12
2017-09-15T02:15:18.700Z,100878.20
2017-09-15T02:17:21.262Z,100876.55
2017-09-15T02:19:23.739Z,100884.33
2017-09-15T02:21:26.238Z,100874.75
2017-09-15T02:23:28.874Z,100875.77
2017-09-15T02:25:31.310Z,100874.33
2017-09-15T02:27:33.796Z,100870.70
2017-09-15T02:29:36.266Z,100867.16
2017-09-15T02:31:38.732Z,100866.73
2017-09-15T02:33:41.191Z,100868.63
2017-09-15T02:35:43.753Z,100867.16
2017-09-15T02:37:46.233Z,100868.08
2017-09-15T02:39:48.685Z,100865.59
2017-09-15T02:41:51.278Z,100869.22
2017-09-15T02:43:53.858Z,100869.22
2017-09-15T02:45:56.331Z,100869.73
2017-09-15T02:47:58.829Z,100864.84
2017-09-15T02:50:01.308Z,100873.78
2017-09-15T02:52:03.785Z,100872.02
2017-09-15T02:54:06.267Z,100868.47
2017-09-15T02:56:08.818Z,100865.69
2017-09-15T02:58:11.457Z,100867.24
2017-09-15T03:00:14.123Z,100862.27
2017-09-15T03:02:16.663Z,100864.84
2017-09-15T03:04:19.216Z,100863.07
2017-09-15T03:06:21.695Z,100869.95
2017-09-15T03:08:24.140Z,100864.00
2017-09-15T03:10:26.587Z,100866.31
2017-09-15T03:12:29.052Z,100863.19
2017-09-15T03:14:31.586Z,100856.31
2017-09-15T03:16:34.164Z,100852.39
2017-09-15T03:18:36.687Z,100855.59
2017-09-15T03:20:39.264Z,100855.80
2017-09-15T03:22:41.714Z,100853.62
2017-09-15T03:24:44.465Z,100849.89
2017-09-15T03:26:46.904Z,100850.49
2017-09-15T03:28:49.485Z,100846.56
2017-09-15T03:30:52.034Z,100851.03
2017-09-15T03:32:54.491Z,100848.42
2017-09-15T03:34:56.966Z,100851.03
2017-09-15T03:36:59.495Z,100852.05
2017-09-15T03:39:01.970Z,100859.65
2017-09-15T03:41:04.549Z,100861.30
2017-09-15T03:43:07.013Z,100857.87
2017-09-15T03:45:09.465Z,100864.55
2017-09-15T03:47:12.005Z,100858.72
2017-09-15T03:49:14.467Z,100860.49
2017-09-15T03:51:16.902Z,100857.45
2017-09-15T03:53:19.473Z,100856.62
2017-09-15T03:55:22.059Z,100857.87
2017-09-15T03:57:24.517Z,100864.39
2017-09-15T03:59:26.990Z,100857.34
2017-09-15T04:01:29.484Z,100855.98
2017-09-15T04:03:31.978Z,100855.23
2017-09-15T04:05:34.413Z,100860.25
2017-09-15T04:07:36.981Z,100863.38
2017-09-15T04:09:39.457Z,100859.31
2017-09-15T04:11:41.936Z,100861.51
2017-09-15T04:13:44.396Z,100857.64
2017-09-15T04:15:46.881Z,100861.09
2017-09-15T04:17:49.345Z,100861.51
2017-09-15T04:19:51.833Z,100856.50
2017-09-15T04:21:54.324Z,100863.16
2017-09-15T04:23:56.769Z,100862.41
2017-09-15T04:25:59.357Z,100865.73
2017-09-15T04:28:01.977Z,100865.53
2017-09-15T04:30:04.465Z,100869.16
2017-09-15T04:32:07.028Z,100864.51
2017-09-15T04:34:09.456Z,100865.44
2017-09-15T04:36:12.166Z,100861.14
2017-09-15T04:38:14.650Z,100858.95
2017-09-15T04:40:17.116Z,100862.23
2017-09-15T04:42:19.552Z,100854.81
2017-09-15T04:44:22.045Z,100857.09
2017-09-15T04:46:24.573Z,100858.44
2017-09-15T04:48:27.021Z,100851.27
2017-09-15T04:50:29.515Z,100858.27
2017-09-15T04:52:32.112Z,100851.60
2017-09-15T04:54:34.604Z,100851.09
2017-09-15T04:56:37.080Z,100854.63
2017-09-15T04:58:39.542Z,100843.83
2017-09-15T05:00:42.049Z,100841.73
2017-09-15T05:02:44.522Z,100839.36
2017-09-15T05:04:46.968Z,100840.70
2017-09-15T05:06:49.510Z,100843.08
2017-09-15T05:08:51.978Z,100842.78
2017-09-15T05:10:54.428Z,100843.20
2017-09-15T05:12:56.934Z,100845.27
2017-09-15T05:14:59.389Z,100842.06
2017-09-15T05:17:01.845Z,100845.19
2017-09-15T05:19:04.466Z,100847.05
2017-09-15T05:21:06.977Z,100840.50
2017-09-15T05:23:09.460Z,100839.06
2017-09-15T05:25:11.916Z,100841.58
2017-09-15T05:27:14.471Z,100842.91
2017-09-15T05:29:16.912Z,100838.43
2017-09-15T05:31:19.379Z,100834.47
2017-09-15T05:33:21.869Z,100835.06
2017-09-15T05:35:24.322Z,100833.30
2017-09-15T05:37:26.780Z,100829.58
2017-09-15T05:39:29.256Z,100823.16
2017-09-15T05:41:31.739Z,100825.64
2017-09-15T05:43:34.241Z,100821.17
2017-09-15T05:45:36.728Z,100813.61
2017-09-15T05:47:39.206Z,100821.59
2017-09-15T05:49:41.707Z,100813.48
2017-09-15T05:51:44.191Z,100813.70
2017-09-15T05:53:46.756Z,100814.54
2017-09-15T05:55:49.208Z,100811.62
2017-09-15T05:57:51.693Z,100809.77
2017-09-15T05:59:54.140Z,100812.38
2017-09-15T06:01:56.631Z,100809.17
2017-09-15T06:03:59.121Z,100816.85
2017-09-15T06:06:01.581Z,100813.10
2017-09-15T06:08:04.027Z,100814.36
2017-09-15T06:10:06.798Z,100818.62
2017-09-15T06:12:09.278Z,100814.16
2017-09-15T06:14:11.724Z,100817.88
2017-09-15T06:16:14.201Z,100818.05
2017-09-15T06:18:16.698Z,100817.96
2017-09-15T06:20:19.165Z,100815.77
2017-09-15T06:22:21.732Z,100815.89
2017-09-15T06:24:24.257Z,100815.59
2017-09-15T06:26:26.775Z,100812.89
2017-09-15T06:28:29.652Z,100815.68
2017-09-15T06:30:32.125Z,100810.28
2017-09-15T06:32:34.576Z,100809.02
2017-09-15T06:34:37.159Z,100808.09
2017-09-15T06:36:39.742Z,100807.16
2017-09-15T06:38:42.237Z,100802.17
2017-09-15T06:40:44.793Z,100806.47
2017-09-15T06:42:47.261Z,100808.72
2017-09-15T06:44:49.760Z,100804.36
2017-09-15T06:46:52.215Z,100812.63
2017-09-15T06:48:54.676Z,100811.87
2017-09-15T06:50:57.160Z,100812.30
2017-09-15T06:52:59.704Z,100808.78
2017-09-15T06:55:02.192Z,100805.99
2017-09-15T06:57:04.653Z,100805.91
2017-09-15T06:59:07.138Z,100807.34
2017-09-15T07:01:09.610Z,100810.02
2017-09-15T07:03:12.169Z,100805.16
2017-09-15T07:05:14.646Z,100807.13
2017-09-15T07:07:17.106Z,100805.27
2017-09-15T07:09:19.680Z,100813.13
2017-09-15T07:11:23.177Z,100808.50
2017-09-15T07:13:25.619Z,100806.06
2017-09-15T07:15:28.085Z,100810.79
2017-09-15T07:17:30.913Z,100801.51
2017-09-15T07:19:33.401Z,100806.09
2017-09-15T07:21:35.840Z,100808.09
2017-09-15T07:23:38.388Z,100809.80
2017-09-15T07:25:41.015Z,100809.06
2017-09-15T07:27:43.462Z,100822.94
2017-09-15T07:29:46.134Z,100817.72
2017-09-15T07:31:48.638Z,100816.27
2017-09-15T07:33:51.194Z,100822.19
2017-09-15T07:35:53.687Z,100827.86
2017-09-15T07:37:56.132Z,100826.25
2017-09-15T07:39:58.586Z,100833.66
2017-09-15T07:42:01.227Z,100839.17
2017-09-15T07:44:03.824Z,100843.00
2017-09-15T07:46:06.320Z,100842.75
2017-09-15T07:48:08.864Z,100843.99
2017-09-15T07:50:11.372Z,100845.02
2017-09-15T07:52:13.849Z,100850.52
2017-09-15T07:54:16.316Z,100843.86
2017-09-15T07:56:18.756Z,100846.50
2017-09-15T07:58:21.231Z,100848.01
2017-09-15T08:00:23.789Z,100845.09
2017-09-15T08:02:26.258Z,100846.22
2017-09-15T08:04:28.735Z,100844.77
2017-09-15T08:06:31.207Z,100846.25
2017-09-15T08:08:33.688Z,100847.94
2017-09-15T08:10:36.183Z,100853.27
2017-09-15T08:12:38.725Z,100843.18
2017-09-15T08:14:41.305Z,100847.81
2017-09-15T08:16:43.777Z,100849.55
2017-09-15T08:18:46.401Z,100850.90
2017-09-15T08:20:48.968Z,100853.77
2017-09-15T08:22:51.458Z,100847.52
2017-09-15T08:24:54.096Z,100847.95
2017-09-15T08:26:56.645Z,100852.47
2017-09-15T08:28:59.148Z,100856.58
2017-09-15T08:31:01.699Z,100853.46
2017-09-15T08:33:04.291Z,100853.52
2017-09-15T08:35:06.754Z,100846.57
2017-09-15T08:37:09.313Z,100856.11
2017-09-15T08:39:11.761Z,100858.55
2017-09-15T08:41:14.207Z,100863.64
2017-09-15T08:43:16.670Z,100848.42
2017-09-15T08:45:19.159Z,100849.13
2017-09-15T08:47:21.622Z,100849.65
2017-09-15T08:49:24.092Z,100843.15
2017-09-15T08:51:26.568Z,100850.70
2017-09-15T08:53:29.001Z,100848.86
2017-09-15T08:55:31.473Z,100844.05
2017-09-15T08:57:33.939Z,100844.92
2017-09-15T08:59:36.448Z,100841.25
2017-09-15T09:01:38.964Z,100835.77
2017-09-15T09:03:41.497Z,100839.03
2017-09-15T09:05:43.984Z,100833.42
2017-09-15T09:07:46.479Z,100830.13
2017-09-15T09:09:49.005Z,100826.41
2017-09-15T09:11:51.442Z,100831.84
2017-09-15T09:13:54.028Z,100829.39
2017-09-15T09:15:56.465Z,100830.35
2017-09-15T09:17:58.948Z,100819.97
2017-09-15T09:20:01.509Z,100817.06
2017-09-15T09:22:04.004Z,100822.19
2017-09-15T09:24:06.589Z,100824.98
2017-09-15T09:26:09.074Z,100826.78
2017-09-15T09:28:11.551Z,100827.77
2017-09-15T09:30:14.060Z,100821.17
2017-09-15T09:32:16.687Z,100827.45
2017-09-15T09:34:19.262Z,100826.03
2017-09-15T09:36:21.789Z,100826.06
2017-09-15T09:38:24.418Z,100826.94
2017-09-15T09:40:26.861Z,100816.87
2017-09-15T09:42:29.291Z,100820.14
2017-09-15T09:44:31.996Z,100809.66
2017-09-15T09:46:34.423Z,100813.30
2017-09-15T09:48:36.912Z,100805.70
2017-09-15T09:50:39.406Z,100800.38
2017-09-15T09:52:41.872Z,100800.05
2017-09-15T09:54:44.325Z,100802.09
2017-09-15T09:56:47.017Z,100797.83
2017-09-15T09:58:49.689Z,100795.97
2017-09-15T10:00:52.184Z,100792.20
2017-09-15T10:02:54.750Z,100792.42
2017-09-15T10:04:57.273Z,100795.00
2017-09-15T10:06:59.733Z,100788.79
2017-09-15T10:09:02.216Z,100790.14
2017-09-15T10:11:04.656Z,100788.09
2017-09-15T10:13:07.102Z,100786.44
2017-09-15T10:15:09.718Z,100790.09
2017-09-15T10:17:12.196Z,100781.17
2017-09-15T10:19:14.641Z,100783.13
2017-09-15T10:21:17.200Z,100785.44
2017-09-15T10:23:19.736Z,100785.41
2017-09-15T10:25:22.347Z,100780.75
2017-09-15T10:27:24.814Z,100780.54
2017-09-15T10:29:27.316Z,100782.73
2017-09-15T10:31:29.753Z,100779.95
2017-09-15T10:33:32.435Z,100780.16
2017-09-15T10:35:34.903Z,100778.72
2017-09-15T10:37:37.378Z,100778.73
2017-09-15T10:39:39.872Z,100766.41
2017-09-15T10:41:42.400Z,100778.96
2017-09-15T10:43:44.889Z,100773.05
2017-09-15T10:45:47.389Z,100777.31
2017-09-15T10:47:49.821Z,100776.08
2017-09-15T10:49:52.259Z,100777.66
2017-09-15T10:51:54.721Z,100792.78
2017-09-15T10:53:57.248Z,100786.14
2017-09-15T10:55:59.808Z,100785.54
2017-09-15T10:58:08.153Z,100789.67
2017-09-15T11:00:13.481Z,100792.85
2017-09-15T11:02:16.190Z,100795.33
2017-09-15T11:04:18.738Z,100797.50
2017-09-15T11:06:21.195Z,100795.49
2017-09-15T11:08:23.689Z,100799.85
2017-09-15T11:10:26.225Z,100787.36
2017-09-15T11:12:28.671Z,100785.50
2017-09-15T11:14:31.108Z,100785.08
2017-09-15T11:16:33.583Z,100779.67
2017-09-15T11:18:36.020Z,100785.91
2017-09-15T11:20:38.578Z,100781.38
2017-09-15T11:22:41.064Z,100785.42
2017-09-15T11:24:43.588Z,100778.55
2017-09-15T11:26:46.020Z,100785.31
2017-09-15T11:28:48.556Z,100784.16
2017-09-15T11:30:51.077Z,100786.45
2017-09-15T11:32:53.629Z,100780.02
2017-09-15T11:34:56.474Z,100783.77
2017-09-15T11:36:58.984Z,100786.19
2017-09-15T11:39:01.523Z,100780.78
2017-09-15T11:41:04.022Z,100782.89
2017-09-15T11:43:06.543Z,100780.32
2017-09-15T11:45:09.192Z,100792.00
2017-09-15T11:47:11.706Z,100793.03
2017-09-15T11:49:14.281Z,100798.59
2017-09-15T11:51:16.768Z,100795.67
2017-09-15T11:53:19.262Z,100790.91
2017-09-15T11:55:21.767Z,100795.69
2017-09-15T11:57:24.309Z,100788.31
2017-09-15T11:59:27.752Z,100795.08
2017-09-15T12:01:30.307Z,100790.38
2017-09-15T12:03:32.895Z,100788.83
2017-09-15T12:05:35.468Z,100795.28
2017-09-15T12:07:37.937Z,100787.29
2017-09-15T12:09:40.407Z,100785.52
2017-09-15T12:11:43.085Z,100789.69
2017-09-15T12:13:45.543Z,100788.25
2017-09-15T12:15:48.072Z,100786.48
2017-09-15T12:17:50.532Z,100781.66
2017-09-15T12:19:52.973Z,100787.95
2017-09-15T12:21:55.489Z,100774.75
2017-09-15T12:23:58.082Z,100777.52
2017-09-15T12:26:00.578Z,100781.58
2017-09-15T12:28:03.154Z,100776.45
2017-09-15T12:30:05.640Z,100776.25
2017-09-15T12:32:08.173Z,100775.89
2017-09-15T12:34:10.604Z,100776.95
2017-09-15T12:36:13.195Z,100770.27
2017-09-15T12:38:15.661Z,100771.91
2017-09-15T12:40:18.165Z,100766.79
2017-09-15T12:42:20.632Z,100764.61
2017-09-15T12:44:23.132Z,100765.38
2017-09-15T12:46:25.570Z,100768.87
2017-09-15T12:48:28.081Z,100766.39
2017-09-15T12:50:30.518Z,100765.02
2017-09-15T12:52:32.964Z,100768.06
2017-09-15T12:54:35.452Z,100765.18
2017-09-15T12:56:37.914Z,100768.23
2017-09-15T12:58:40.380Z,100771.05
2017-09-15T13:00:42.989Z,100766.20
2017-09-15T13:02:45.555Z,100771.88
2017-09-15T13:04:47.988Z,100762.43
2017-09-15T13:06:50.497Z,100759.20
2017-09-15T13:08:52.957Z,100760.97
2017-09-15T13:10:55.396Z,100755.47
2017-09-15T13:12:57.942Z,100754.44
2017-09-15T13:15:00.478Z,100756.21
2017-09-15T13:17:02.949Z,100759.76
2017-09-15T13:19:05.448Z,100749.88
2017-09-15T13:21:07.884Z,100747.38
2017-09-15T13:23:10.334Z,100745.70
2017-09-15T13:25:12.838Z,100744.06
2017-09-15T13:27:15.364Z,100744.99
2017-09-15T13:29:17.975Z,100744.99
2017-09-15T13:31:20.442Z,100748.73
2017-09-15T13:33:22.884Z,100740.44
2017-09-15T13:35:25.356Z,100743.95
2017-09-15T13:37:27.957Z,100743.94
2017-09-15T13:39:30.448Z,100737.81
2017-09-15T13:41:32.894Z,100742.47
2017-09-15T13:43:35.365Z,100737.28
2017-09-15T13:45:37.940Z,100735.93
2017-09-15T13:47:40.468Z,100741.34
2017-09-15T13:49:43.032Z,100733.73
2017-09-15T13:51:45.485Z,100736.86
2017-09-15T13:53:47.967Z,100727.40
2017-09-15T13:55:50.426Z,100733.64
2017-09-15T13:57:52.868Z,100726.56
2017-09-15T13:59:55.379Z,100733.83
2017-09-15T14:01:57.961Z,100731.64
2017-09-15T14:04:00.430Z,100727.98
2017-09-15T14:06:02.862Z,100735.38
2017-09-15T14:08:05.332Z,100732.55
2017-09-15T14:10:07.793Z,100732.99
2017-09-15T14:12:10.282Z,100736.44
2017-09-15T14:14:12.776Z,100734.77
2017-09-15T14:16:15.369Z,100727.38
2017-09-15T14:18:17.840Z,100727.78
2017-09-15T14:20:20.412Z,100724.66
2017-09-15T14:22:22.988Z,100728.91
2017-09-15T14:24:25.455Z,100725.91
2017-09-15T14:26:28.064Z,100725.48
2017-09-15T14:28:30.561Z,100723.99
2017-09-15T14:30:33.024Z,100722.64
2017-09-15T14:32:35.592Z,100729.41
2017-09-15T14:34:38.148Z,100720.58
2017-09-15T14:36:40.706Z,100721.92
2017-09-15T14:38:43.216Z,100720.85
2017-09-15T14:40:45.657Z,100714.50
2017-09-15T14:42:48.095Z,100726.37
2017-09-15T14:44:50.588Z,100726.64
2017-09-15T14:46:53.050Z,100726.55
2017-09-15T14:48:55.485Z,100730.42
2017-09-15T14:50:58.028Z,100726.90
2017-09-15T14:53:00.479Z,100728.87
2017-09-15T14:55:02.928Z,100725.67
2017-09-15T14:57:05.433Z,100721.43
2017-09-15T14:59:07.993Z,100723.31
2017-09-15T15:01:10.569Z,100728.50
2017-09-15T15:03:13.045Z,100730.36
2017-09-15T15:05:15.518Z,100726.13
2017-09-15T15:07:17.976Z,100735.09
2017-09-15T15:09:20.445Z,100729.88
2017-09-15T15:11:22.954Z,100725.31
2017-09-15T15:13:25.400Z,100725.13
2017-09-15T15:15:27.890Z,100732.49
2017-09-15T15:17:30.417Z,100728.67
2017-09-15T15:19:32.899Z,100724.06
2017-09-15T15:21:35.389Z,100724.48
2017-09-15T15:23:37.936Z,100725.66
2017-09-15T15:25:40.385Z,100727.52
2017-09-15T15:27:42.836Z,100728.47
2017-09-15T15:29:45.285Z,100725.16
2017-09-15T15:31:47.824Z,100728.98
2017-09-15T15:33:50.482Z,100737.75
2017-09-15T15:35:52.923Z,100738.46
2017-09-15T15:37:55.373Z,100732.21
2017-09-15T15:39:57.940Z,100735.75
2017-09-15T15:42:00.433Z,100735.15
2017-09-15T15:44:03.069Z,100733.91
2017-09-15T15:46:05.579Z,100737.55
2017-09-15T15:48:08.043Z,100745.05
2017-09-15T15:50:10.523Z,100738.16
2017-09-15T15:52:14.004Z,100738.91
2017-09-15T15:54:16.480Z,100734.84
2017-09-15T15:56:19.003Z,100738.48
2017-09-15T15:58:21.561Z,100738.48
2017-09-15T16:00:24.152Z,100739.41
2017-09-15T16:02:26.597Z,100738.29
2017-09-15T16:04:29.196Z,100743.70
2017-09-15T16:06:31.675Z,100755.36
2017-09-15T16:08:34.244Z,100739.33
2017-09-15T16:10:36.794Z,100735.78
2017-09-15T16:12:39.226Z,100740.26
2017-09-15T16:14:41.752Z,100741.61
2017-09-15T16:16:44.253Z,100743.38
2017-09-15T16:18:46.708Z,100742.23
2017-09-15T16:20:49.181Z,100743.49
2017-09-15T16:22:51.789Z,100738.17
2017-09-15T16:24:54.265Z,100745.78
2017-09-15T16:26:56.732Z,100742.23
2017-09-15T16:28:59.303Z,100738.72
2017-09-15T16:31:01.766Z,100737.88
2017-09-15T16:33:04.237Z,100734.75
2017-09-15T16:35:07.716Z,100736.53
2017-09-15T16:37:10.221Z,100733.92
2017-09-15T16:39:18.348Z,100737.05
2017-09-15T16:41:26.604Z,100737.23
2017-09-15T16:43:34.770Z,100733.97
2017-09-15T16:45:42.792Z,100737.30
2017-09-15T16:47:50.905Z,100726.11
2017-09-15T16:49:52.925Z,100732.32
2017-09-15T16:51:55.368Z,100733.83
2017-09-15T16:53:57.863Z,100732.88
2017-09-15T16:56:00.312Z,100739.30
2017-09-15T16:58:02.823Z,100734.68
2017-09-15T17:00:05.288Z,100730.53
2017-09-15T17:02:08.551Z,100741.94
2017-09-15T17:04:11.142Z,100734.50
2017-09-15T17:06:13.637Z,100737.63
2017-09-15T17:08:16.150Z,100736.58
2017-09-15T17:10:18.590Z,100736.11
2017-09-15T17:12:21.224Z,100735.89
2017-09-15T17:14:23.763Z,100738.50
2017-09-15T17:16:26.369Z,100739.83
2017-09-15T17:18:28.921Z,100741.39
2017-09-15T17:20:31.408Z,100743.92
2017-09-15T17:22:33.877Z,100745.70
2017-09-15T17:24:36.449Z,100751.10
2017-09-15T17:26:38.896Z,100759.42
2017-09-15T17:28:41.336Z,100765.25
2017-09-15T17:30:43.793Z,100761.88
2017-09-15T17:32:46.232Z,100759.50
2017-09-15T17:34:48.782Z,100759.73
2017-09-15T17:36:51.437Z,100758.92
2017-09-15T17:38:53.906Z,100757.75
2017-09-15T17:40:56.410Z,100758.89
2017-09-15T17:42:59.124Z,100759.61
2017-09-15T17:45:01.771Z,100759.27
2017-09-15T17:47:04.241Z,100754.88
2017-09-15T17:49:06.812Z,100752.16
2017-09-15T17:51:09.340Z,100761.22
2017-09-15T17:53:11.787Z,100754.77
2017-09-15T17:55:14.248Z,100751.14
2017-09-15T17:57:16.692Z,100748.38
2017-09-15T17:59:19.265Z,100754.22
2017-09-15T18:01:21.742Z,100750.44
2017-09-15T18:03:24.225Z,100756.05
2017-09-15T18:05:26.696Z,100759.86
2017-09-15T18:07:29.437Z,100755.81
2017-09-15T18:09:31.932Z,100759.06
2017-09-15T18:11:34.506Z,100765.48
2017-09-15T18:13:36.990Z,100767.42
2017-09-15T18:15:39.445Z,100768.36
2017-09-15T18:17:41.966Z,100769.59
2017-09-15T18:19:44.516Z,100773.73
2017-09-15T18:21:47.015Z,100773.48
2017-09-15T18:23:49.758Z,100777.30
2017-09-15T18:25:52.329Z,100774.08
2017-09-15T18:27:54.920Z,100779.19
2017-09-15T18:29:57.437Z,100777.80
2017-09-15T18:32:00.015Z,100782.54
2017-09-15T18:34:02.495Z,100781.21
2017-09-15T18:36:04.982Z,100776.27
2017-09-15T18:38:07.500Z,100783.31
2017-09-15T18:40:10.056Z,100782.05
2017-09-15T18:42:13.726Z,100786.22
2017-09-15T18:44:16.377Z,100783.64
2017-09-15T18:46:19.060Z,100790.30
2017-09-15T18:48:22.945Z,100790.15
2017-09-15T18:50:27.260Z,100787.57
2017-09-15T18:52:29.851Z,100787.89
2017-09-15T18:54:32.512Z,100789.67
2017-09-15T18:56:35.390Z,100792.58
2017-09-15T18:58:37.950Z,100796.67
2017-09-15T19:00:40.398Z,100795.53
2017-09-15T19:02:42.918Z,100802.16
2017-09-15T19:04:45.481Z,100802.28
2017-09-15T19:06:47.920Z,100800.72
2017-09-15T19:08:50.524Z,100804.33
2017-09-15T19:10:53.094Z,100805.09
2017-09-15T19:12:55.665Z,100810.04
2017-09-15T19:14:58.191Z,100805.23
2017-09-15T19:17:00.672Z,100802.50
2017-09-15T19:19:03.188Z,100798.45
2017-09-15T19:21:05.730Z,100801.75
2017-09-15T19:23:08.418Z,100800.53
2017-09-15T19:25:10.997Z,100800.19
2017-09-15T19:27:13.495Z,100805.80
2017-09-15T19:29:16.005Z,100793.23
2017-09-15T19:31:18.476Z,100795.80
2017-09-15T19:33:20.968Z,100800.41
2017-09-15T19:35:23.446Z,100798.39
2017-09-15T19:37:26.023Z,100800.58
2017-09-15T19:39:28.597Z,100798.64
2017-09-15T19:41:31.133Z,100796.28
2017-09-15T19:43:33.694Z,100797.80
2017-09-15T19:45:36.340Z,100804.55
2017-09-15T19:47:38.885Z,100803.06
2017-09-15T19:49:41.324Z,100811.75
2017-09-15T19:51:43.932Z,100801.84
2017-09-15T19:53:46.500Z,100800.84
2017-09-15T19:55:49.075Z,100799.61
2017-09-15T19:57:51.679Z,100792.87
2017-09-15T19:59:54.161Z,100797.97
2017-09-15T20:01:56.690Z,100794.30
2017-09-15T20:03:59.147Z,100790.77
2017-09-15T20:06:01.616Z,100790.98
2017-09-15T20:08:04.194Z,100787.35
2017-09-15T20:10:06.765Z,100793.04
2017-09-15T20:12:09.304Z,100792.16
2017-09-15T20:14:11.750Z,100792.87
2017-09-15T20:16:14.252Z,100788.45
2017-09-15T20:18:16.864Z,100787.73
2017-09-15T20:20:19.443Z,100790.22
2017-09-15T20:22:22.105Z,100788.95
2017-09-15T20:24:24.549Z,100790.86
2017-09-15T20:26:26.989Z,100799.11
2017-09-15T20:28:29.498Z,100792.16
2017-09-15T20:30:31.952Z,100792.53
2017-09-15T20:32:34.561Z,100791.15
2017-09-15T20:34:37.236Z,100785.53
2017-09-15T20:36:39.807Z,100786.85
2017-09-15T20:38:42.483Z,100788.08
2017-09-15T20:40:45.137Z,100780.36
2017-09-15T20:42:47.601Z,100781.33
2017-09-15T20:44:50.043Z,100783.77
2017-09-15T20:46:52.922Z,100783.77
2017-09-15T20:48:55.406Z,100785.50
2017-09-15T20:50:57.854Z,100781.70
2017-09-15T20:53:00.329Z,100788.06
2017-09-15T20:55:02.805Z,100790.09
2017-09-15T20:57:05.246Z,100785.16
2017-09-15T20:59:07.776Z,100788.20
2017-09-15T21:01:10.250Z,100793.05
2017-09-15T21:03:12.841Z,100795.31
2017-09-15T21:05:15.357Z,100794.55
2017-09-15T21:07:17.829Z,100794.31
2017-09-15T21:09:20.353Z,100794.55
2017-09-15T21:11:22.976Z,100796.28
2017-09-15T21:13:25.447Z,100797.05
2017-09-15T21:15:27.897Z,100797.42
2017-09-15T21:17:30.414Z,100794.77
2017-09-15T21:19:33.010Z,100793.63
2017-09-15T21:21:35.559Z,100795.81
2017-09-15T21:23:38.160Z,100791.11
2017-09-15T21:25:40.668Z,100787.14
2017-09-15T21:29:50.872Z,100787.57
2017-09-15T21:31:53.393Z,100785.12
2017-09-15T21:33:55.933Z,100786.05
2017-09-15T21:35:58.525Z,100786.89
2017-09-15T21:38:01.059Z,100785.38
2017-09-15T21:40:03.539Z,100778.63
2017-09-15T21:42:06.076Z,100782.26
2017-09-15T21:44:08.524Z,100783.86
2017-09-15T21:46:10.964Z,100780.28
2017-09-15T21:48:13.638Z,100782.05
2017-09-15T21:50:16.091Z,100784.23
2017-09-15T21:52:18.552Z,100784.19
2017-09-15T21:54:21.015Z,100789.08
2017-09-15T21:56:23.459Z,100788.03
2017-09-15T21:58:25.988Z,100786.27
2017-09-15T22:00:28.559Z,100790.34
2017-09-15T22:02:31.058Z,100790.47
2017-09-15T22:04:39.079Z,100793.37
2017-09-15T22:06:41.648Z,100795.35
2017-09-15T22:08:44.107Z,100792.11
2017-09-15T22:10:46.565Z,100791.44
2017-09-15T22:12:49.093Z,100791.77
2017-09-15T22:14:51.533Z,100794.89
2017-09-15T22:16:54.027Z,100792.48
2017-09-15T22:18:56.571Z,100793.41
2017-09-15T22:20:59.011Z,100791.98
2017-09-15T22:23:01.572Z,100795.90
2017-09-15T22:25:04.093Z,100800.31
2017-09-15T22:27:06.636Z,100789.11
2017-09-15T22:29:09.120Z,100789.11
2017-09-15T22:31:11.656Z,100787.00
2017-09-15T22:33:14.225Z,100785.02
2017-09-15T22:35:17.533Z,100785.91
2017-09-15T22:37:20.184Z,100781.03
2017-09-15T22:39:22.671Z,100778.54
2017-09-15T22:41:25.232Z,100781.12
2017-09-15T22:43:27.711Z,100776.34
2017-09-15T22:45:30.166Z,100770.88
2017-09-15T22:47:32.668Z,100774.29
2017-09-15T22:49:35.373Z,100772.02
2017-09-15T22:51:37.915Z,100765.02
2017-09-15T22:53:40.468Z,100765.73
2017-09-15T22:55:42.971Z,100765.98
2017-09-15T22:57:45.505Z,100765.69
2017-09-15T22:59:48.026Z,100761.57
2017-09-15T23:01:50.587Z,100763.63
2017-09-15T23:03:53.021Z,100758.23
2017-09-15T23:05:55.694Z,100764.04
2017-09-15T23:07:58.422Z,100762.61
2017-09-15T23:10:00.890Z,100755.03
2017-09-15T23:12:03.512Z,100763.16
2017-09-15T23:14:06.058Z,100755.23
2017-09-15T23:16:09.026Z,100750.09
2017-09-15T23:18:11.982Z,100759.16
2017-09-15T23:20:14.520Z,100762.15